Observation data for White River Lake on 02/13/2018      Previous  Date  Next       Current Mesonet Observations  Soil Data  Daily Summary Page  Observations in Plain Language
KWVS 130600Z 07007KT M00/M10 A3027 RMK A01 T10041095  RH  050%=      5-min Rain = 0
KWVS 130605Z 07008KT M01/M10 A3027 RMK A01 T10061095  RH  051%=      5-min Rain = 0
KWVS 130610Z 07008KT M01/M10 A3027 RMK A01 T10081095  RH  051%=      5-min Rain = 0
KWVS 130615Z 07008KT M01/M10 A3026 RMK A01 T10111096  RH  052%=      5-min Rain = 0
KWVS 130620Z 08008KT M01/M10 A3026 RMK A01 T10131096  RH  053%=      5-min Rain = 0
KWVS 130625Z 08009KT M01/M09 A3026 RMK A01 T10121094  RH  054%=      5-min Rain = 0
KWVS 130630Z 08008KT M01/M09 A3026 RMK A01 T10121093  RH  054%=      5-min Rain = 0
KWVS 130635Z 08008KT M01/M09 A3026 RMK A01 T10121092  RH  054%=      5-min Rain = 0
KWVS 130640Z 08008KT M01/M09 A3026 RMK A01 T10141093  RH  055%=      5-min Rain = 0
KWVS 130645Z 08007KT M02/M09 A3026 RMK A01 T10151092  RH  055%=      5-min Rain = 0
KWVS 130650Z 08007KT M02/M09 A3026 RMK A01 T10161092  RH  056%=      5-min Rain = 0
KWVS 130655Z 08007KT M02/M09 A3026 RMK A01 T10161092  RH  056%=      5-min Rain = 0
KWVS 130700Z 09007KT M01/M09 A3026 RMK A01 T10141089  RH  057%=      5-min Rain = 0
KWVS 130705Z 08005KT M02/M09 A3026 RMK A01 T10151089  RH  057%=      5-min Rain = 0
KWVS 130710Z 08005KT M02/M09 A3026 RMK A01 T10161089  RH  057%=      5-min Rain = 0
KWVS 130715Z 07004KT M02/M09 A3027 RMK A01 T10151088  RH  057%=      5-min Rain = 0
KWVS 130720Z 06005KT M02/M09 A3027 RMK A01 T10151088  RH  058%=      5-min Rain = 0
KWVS 130725Z 07006KT M02/M09 A3027 RMK A01 T10151086  RH  058%=      5-min Rain = 0
KWVS 130730Z 07005KT M02/M09 A3027 RMK A01 T10151086  RH  059%=      5-min Rain = 0
KWVS 130735Z 07004KT M02/M09 A3027 RMK A01 T10161086  RH  059%=      5-min Rain = 0
KWVS 130740Z 07004KT M02/M09 A3027 RMK A01 T10161085  RH  059%=      5-min Rain = 0
KWVS 130745Z 06004KT M02/M09 A3027 RMK A01 T10161085  RH  059%=      5-min Rain = 0
KWVS 130750Z 05003KT M02/M09 A3027 RMK A01 T10211088  RH  060%=      5-min Rain = 0
KWVS 130755Z 06003KT M02/M09 A3027 RMK A01 T10241088  RH  061%=      5-min Rain = 0
KWVS 130800Z 06004KT M02/M09 A3027 RMK A01 T10241087  RH  062%=      5-min Rain = 0
KWVS 130805Z 06005KT M03/M09 A3027 RMK A01 T10251087  RH  062%=      5-min Rain = 0
KWVS 130810Z 06005KT M03/M09 A3027 RMK A01 T10251086  RH  063%=      5-min Rain = 0
KWVS 130815Z 04004KT M03/M09 A3027 RMK A01 T10281088  RH  063%=      5-min Rain = 0
KWVS 130820Z 04005KT M03/M09 A3026 RMK A01 T10321089  RH  065%=      5-min Rain = 0
KWVS 130825Z 06005KT M03/M08 A3026 RMK A01 T10291084  RH  066%=      5-min Rain = 0
KWVS 130830Z 05005KT M03/M09 A3027 RMK A01 T10291087  RH  064%=      5-min Rain = 0
KWVS 130835Z 05005KT M03/M09 A3027 RMK A01 T10331087  RH  066%=      5-min Rain = 0
KWVS 130840Z 06006KT M03/M08 A3027 RMK A01 T10261080  RH  067%=      5-min Rain = 0
KWVS 130845Z 06006KT M02/M08 A3027 RMK A01 T10241080  RH  065%=      5-min Rain = 0
KWVS 130850Z 06006KT M03/M08 A3026 RMK A01 T10261081  RH  066%=      5-min Rain = 0
KWVS 130855Z 05006KT M03/M08 A3026 RMK A01 T10261080  RH  066%=      5-min Rain = 0
KWVS 130900Z 05006KT M03/M08 A3026 RMK A01 T10321084  RH  067%=      5-min Rain = 0
KWVS 130905Z 06006KT M03/M08 A3026 RMK A01 T10331082  RH  069%=      5-min Rain = 0
KWVS 130910Z 05006KT M03/M08 A3025 RMK A01 T10321082  RH  068%=      5-min Rain = 0
KWVS 130915Z 05006KT M04/M09 A3025 RMK A01 T10361085  RH  069%=      5-min Rain = 0
KWVS 130920Z 06006KT M03/M08 A3025 RMK A01 T10331079  RH  070%=      5-min Rain = 0
KWVS 130925Z 05005KT M03/M08 A3025 RMK A01 T10321080  RH  069%=      5-min Rain = 0
KWVS 130930Z 04005KT M04/M08 A3025 RMK A01 T10351082  RH  070%=      5-min Rain = 0
KWVS 130935Z 05005KT M03/M08 A3025 RMK A01 T10331078  RH  071%=      5-min Rain = 0
KWVS 130940Z 04003KT M04/M08 A3026 RMK A01 T10351083  RH  069%=      5-min Rain = 0
KWVS 130945Z 03002KT M04/M09 A3026 RMK A01 T10431090  RH  070%=      5-min Rain = 0
KWVS 130950Z 03003KT M04/M09 A3026 RMK A01 T10431088  RH  071%=      5-min Rain = 0
KWVS 130955Z 04003KT M04/M09 A3026 RMK A01 T10411086  RH  071%=      5-min Rain = 0
KWVS 131000Z 07004KT M04/M08 A3026 RMK A01 T10371081  RH  072%=      5-min Rain = 0
KWVS 131005Z 07004KT M04/M08 A3026 RMK A01 T10361081  RH  071%=      5-min Rain = 0
KWVS 131010Z 05003KT M04/M08 A3026 RMK A01 T10391084  RH  071%=      5-min Rain = 0
KWVS 131015Z 04003KT M04/M08 A3026 RMK A01 T10381081  RH  072%=      5-min Rain = 0
KWVS 131020Z 01002KT M04/M08 A3027 RMK A01 T10411084  RH  072%=      5-min Rain = 0
KWVS 131025Z 02002KT M04/M08 A3027 RMK A01 T10381079  RH  073%=      5-min Rain = 0
KWVS 131030Z 35003KT M04/M08 A3027 RMK A01 T10411084  RH  072%=      5-min Rain = 0
KWVS 131035Z 35003KT M04/M08 A3027 RMK A01 T10431084  RH  073%=      5-min Rain = 0
KWVS 131040Z 35003KT M04/M08 A3028 RMK A01 T10421082  RH  073%=      5-min Rain = 0
KWVS 131045Z 35004KT M04/M08 A3028 RMK A01 T10431083  RH  074%=      5-min Rain = 0
KWVS 131050Z 34005KT M05/M08 A3028 RMK A01 T10451083  RH  074%=      5-min Rain = 0
KWVS 131055Z 36004KT M04/M08 A3027 RMK A01 T10421079  RH  075%=      5-min Rain = 0
KWVS 131100Z 02004KT M04/M08 A3027 RMK A01 T10411079  RH  075%=      5-min Rain = 0
KWVS 131105Z 04004KT M04/M08 A3027 RMK A01 T10381075  RH  075%=      5-min Rain = 0
KWVS 131110Z 04004KT M04/M08 A3027 RMK A01 T10371076  RH  074%=      5-min Rain = 0
KWVS 131115Z 05004KT M04/M08 A3027 RMK A01 T10371076  RH  075%=      5-min Rain = 0
KWVS 131120Z 05004KT M03/M07 A3027 RMK A01 T10331071  RH  075%=      5-min Rain = 0
KWVS 131125Z 06004KT M03/M07 A3027 RMK A01 T10321070  RH  075%=      5-min Rain = 0
KWVS 131130Z 05003KT M03/M07 A3027 RMK A01 T10321071  RH  075%=      5-min Rain = 0
KWVS 131135Z 06004KT M03/M07 A3028 RMK A01 T10321070  RH  075%=      5-min Rain = 0
KWVS 131140Z 07004KT M03/M07 A3028 RMK A01 T10301067  RH  076%=      5-min Rain = 0
KWVS 131145Z 07004KT M03/M07 A3028 RMK A01 T10291066  RH  075%=      5-min Rain = 0
KWVS 131150Z 07004KT M03/M07 A3028 RMK A01 T10301068  RH  075%=      5-min Rain = 0
KWVS 131155Z 06005KT M03/M07 A3028 RMK A01 T10311069  RH  075%=      5-min Rain = 0
KWVS 131200Z 05005KT M04/M08 A3029 RMK A01 T10411078  RH  075%=      5-min Rain = 0
KWVS 131205Z 05004KT M04/M08 A3029 RMK A01 T10401075  RH  077%=      5-min Rain = 0
KWVS 131210Z 05004KT M04/M08 A3029 RMK A01 T10411075  RH  077%=      5-min Rain = 0
KWVS 131215Z 05004KT M04/M07 A3029 RMK A01 T10391073  RH  078%=      5-min Rain = 0
KWVS 131220Z 03003KT M04/M08 A3029 RMK A01 T10431076  RH  078%=      5-min Rain = 0
KWVS 131225Z 02003KT M04/M08 A3029 RMK A01 T10431075  RH  078%=      5-min Rain = 0
KWVS 131230Z 02003KT M04/M08 A303 RMK A01 T10431075  RH  079%=      5-min Rain = 0
KWVS 131235Z 01003KT M04/M08 A303 RMK A01 T10441076  RH  078%=      5-min Rain = 0
KWVS 131240Z 35004KT M05/M08 A303 RMK A01 T10481080  RH  079%=      5-min Rain = 0
KWVS 131245Z 35004KT M05/M08 A303 RMK A01 T10491079  RH  079%=      5-min Rain = 0
KWVS 131250Z 01004KT M05/M08 A3029 RMK A01 T10481077  RH  080%=      5-min Rain = 0
KWVS 131255Z 02004KT M05/M08 A3029 RMK A01 T10461075  RH  080%=      5-min Rain = 0
KWVS 131300Z 03004KT M04/M07 A3029 RMK A01 T10431072  RH  080%=      5-min Rain = 0
KWVS 131305Z 04004KT M04/M07 A3029 RMK A01 T10411070  RH  080%=      5-min Rain = 0
KWVS 131310Z 04003KT M04/M07 A3029 RMK A01 T10381067  RH  080%=      5-min Rain = 0
KWVS 131315Z 05003KT M04/M07 A3029 RMK A01 T10351065  RH  080%=      5-min Rain = 0
KWVS 131320Z 05004KT M03/M06 A303 RMK A01 T10331064  RH  079%=      5-min Rain = 0
KWVS 131325Z 04003KT M03/M07 A303 RMK A01 T10341065  RH  079%=      5-min Rain = 0
KWVS 131330Z 05004KT M04/M07 A303 RMK A01 T10351066  RH  079%=      5-min Rain = 0
KWVS 131335Z 06004KT M03/M06 A303 RMK A01 T10321063  RH  079%=      5-min Rain = 0
KWVS 131340Z 05003KT M03/M06 A303 RMK A01 T10291061  RH  079%=      5-min Rain = 0
KWVS 131345Z 04003KT M03/M06 A303 RMK A01 T10271060  RH  078%=      5-min Rain = 0
KWVS 131350Z 05002KT M03/M06 A303 RMK A01 T10251059  RH  077%=      5-min Rain = 0
KWVS 131355Z 03002KT M02/M06 A303 RMK A01 T10221057  RH  077%=      5-min Rain = 0
KWVS 131400Z 03003KT M02/M06 A303 RMK A01 T10201055  RH  077%=      5-min Rain = 0
KWVS 131405Z 05003KT M02/M05 A303 RMK A01 T10171054  RH  076%=      5-min Rain = 0
KWVS 131410Z 05002KT M02/M05 A3031 RMK A01 T10151053  RH  075%=      5-min Rain = 0
KWVS 131415Z 04002KT M01/M05 A3031 RMK A01 T10141053  RH  075%=      5-min Rain = 0
KWVS 131420Z 05002KT M01/M05 A3031 RMK A01 T10121052  RH  074%=      5-min Rain = 0
KWVS 131425Z 04002KT M01/M05 A3031 RMK A01 T10111052  RH  074%=      5-min Rain = 0
KWVS 131430Z 06001KT M01/M05 A3032 RMK A01 T10101051  RH  074%=      5-min Rain = 0
KWVS 131435Z 06001KT M01/M05 A3032 RMK A01 T10091050  RH  074%=      5-min Rain = 0
KWVS 131440Z 12001KT M01/M05 A3032 RMK A01 T10071050  RH  073%=      5-min Rain = 0
KWVS 131445Z 11001KT M01/M05 A3032 RMK A01 T10061050  RH  072%=      5-min Rain = 0
KWVS 131450Z 07000KT M00/M05 A3033 RMK A01 T10041050  RH  072%=      5-min Rain = 0
KWVS 131455Z 03002KT M00/M05 A3032 RMK A01 T10021049  RH  071%=      5-min Rain = 0
KWVS 131500Z 07001KT 00/05 A3032 RMK A01 T00-00-49  RH  070%=      5-min Rain = 0
KWVS 131505Z 12001KT 00/M05 A3032 RMK A01 T00031047  RH  069%=      5-min Rain = 0
KWVS 131510Z 15001KT 01/M05 A3033 RMK A01 T00071046  RH  068%=      5-min Rain = 0
KWVS 131515Z 21002KT 01/M05 A3033 RMK A01 T00101046  RH  067%=      5-min Rain = 0
KWVS 131520Z 21001KT 01/M04 A3033 RMK A01 T00131044  RH  066%=      5-min Rain = 0
KWVS 131525Z 25001KT 02/M04 A3033 RMK A01 T00171044  RH  064%=      5-min Rain = 0
KWVS 131530Z 28001KT 02/M04 A3033 RMK A01 T00191044  RH  063%=      5-min Rain = 0
KWVS 131535Z 15002KT 02/M04 A3033 RMK A01 T00231042  RH  063%=      5-min Rain = 0
KWVS 131540Z 13005KT 03/M04 A3033 RMK A01 T00251043  RH  061%=      5-min Rain = 0
KWVS 131545Z 13007KT 02/M05 A3034 RMK A01 T00221046  RH  061%=      5-min Rain = 0
KWVS 131550Z 13007KT 02/M05 A3034 RMK A01 T00191047  RH  062%=      5-min Rain = 0
KWVS 131555Z 13005KT 02/M05 A3034 RMK A01 T00211046  RH  061%=      5-min Rain = 0
KWVS 131600Z 13005KT 02/M05 A3035 RMK A01 T00221046  RH  061%=      5-min Rain = 0
KWVS 131605Z 12005KT 02/M05 A3035 RMK A01 T00241045  RH  060%=      5-min Rain = 0
KWVS 131610Z 13004KT 02/M05 A3034 RMK A01 T00211046  RH  061%=      5-min Rain = 0
KWVS 131615Z 13004KT 03/M04 A3034 RMK A01 T00261044  RH  060%=      5-min Rain = 0
KWVS 131620Z 15005KT 03/M04 A3035 RMK A01 T00281043  RH  060%=      5-min Rain = 0
KWVS 131625Z 14006KT 03/M04 A3034 RMK A01 T00311043  RH  058%=      5-min Rain = 0
KWVS 131630Z 13005KT 03/M04 A3033 RMK A01 T00341042  RH  058%=      5-min Rain = 0
KWVS 131635Z 14005KT 04/M04 A3034 RMK A01 T00361041  RH  057%=      5-min Rain = 0
KWVS 131640Z 18004KT 04/M04 A3035 RMK A01 T00361041  RH  058%=      5-min Rain = 0
KWVS 131645Z 16005KT 04/M04 A3034 RMK A01 T00371040  RH  057%=      5-min Rain = 0
KWVS 131650Z 16005KT 04/M04 A3035 RMK A01 T00401040  RH  056%=      5-min Rain = 0
KWVS 131655Z 15006KT 04/M04 A3035 RMK A01 T00421038  RH  056%=      5-min Rain = 0
KWVS 131700Z 15005KT 05/M04 A3034 RMK A01 T00461037  RH  055%=      5-min Rain = 0
KWVS 131705Z 17005KT 05/M04 A3034 RMK A01 T00481037  RH  054%=      5-min Rain = 0
KWVS 131710Z 17005KT 05/M04 A3034 RMK A01 T00481037  RH  054%=      5-min Rain = 0
KWVS 131715Z 16005KT 05/M04 A3034 RMK A01 T00491035  RH  055%=      5-min Rain = 0
KWVS 131720Z 18006KT 05/M03 A3034 RMK A01 T00521033  RH  054%=      5-min Rain = 0
KWVS 131725Z 16005KT 05/M03 A3034 RMK A01 T00531033  RH  054%=      5-min Rain = 0
KWVS 131730Z 18005KT 06/M03 A3034 RMK A01 T00571027  RH  055%=      5-min Rain = 0
KWVS 131735Z 15006KT 06/M02 A3034 RMK A01 T00611024  RH  055%=      5-min Rain = 0
KWVS 131740Z 16005KT 06/M02 A3033 RMK A01 T00611021  RH  056%=      5-min Rain = 0
KWVS 131745Z 16003KT 06/M02 A3033 RMK A01 T00611023  RH  055%=      5-min Rain = 0
KWVS 131750Z 17003KT 06/M03 A3033 RMK A01 T00601025  RH  055%=      5-min Rain = 0
KWVS 131755Z 18005KT 06/M02 A3033 RMK A01 T00621024  RH  054%=      5-min Rain = 0
KWVS 131800Z 17003KT 06/M02 A3033 RMK A01 T00621022  RH  055%=      5-min Rain = 0
KWVS 131805Z 20003KT 07/M02 A3033 RMK A01 T00651015  RH  057%=      5-min Rain = 0
KWVS 131810Z 18004KT 07/M02 A3033 RMK A01 T00681017  RH  055%=      5-min Rain = 0
KWVS 131815Z 20004KT 07/M02 A3032 RMK A01 T00691017  RH  055%=      5-min Rain = 0
KWVS 131820Z 18008KT 08/M01 A3032 RMK A01 T00781006  RH  056%=      5-min Rain = 0
KWVS 131825Z 21008KT 08/M01 A3032 RMK A01 T00781007  RH  056%=      5-min Rain = 0
KWVS 131830Z 19009KT 08/M01 A3031 RMK A01 T00781005  RH  056%=      5-min Rain = 0
KWVS 131835Z 19009KT 08/M00 A3031 RMK A01 T00811004  RH  056%=      5-min Rain = 0
KWVS 131840Z 20012G17KT 09/M00 A3031 RMK A01 T00881001  RH  054%=      5-min Rain = 0
KWVS 131845Z 20014G20KT 09/00 A3031 RMK A01 T00880000  RH  055%=      5-min Rain = 0
KWVS 131850Z 19013KT 09/M00 A303 RMK A01 T00871003  RH  054%=      5-min Rain = 0
KWVS 131855Z 20011KT 09/M01 A303 RMK A01 T00881007  RH  052%=      5-min Rain = 0
KWVS 131900Z 20011KT 09/M01 A303 RMK A01 T00891008  RH  051%=      5-min Rain = 0
KWVS 131905Z 20010KT 10/M01 A303 RMK A01 T00971008  RH  048%=      5-min Rain = 0
KWVS 131910Z 19010KT 10/M01 A303 RMK A01 T00971009  RH  048%=      5-min Rain = 0
KWVS 131915Z 20009G14KT 10/M01 A303 RMK A01 T01001009  RH  047%=      5-min Rain = 0
KWVS 131920Z 19009KT 10/M01 A303 RMK A01 T01021010  RH  046%=      5-min Rain = 0
KWVS 131925Z 20010KT 10/M01 A3029 RMK A01 T01031011  RH  046%=      5-min Rain = 0
KWVS 131930Z 18009G14KT 11/M01 A303 RMK A01 T01081009  RH  045%=      5-min Rain = 0
KWVS 131935Z 19008KT 11/M01 A303 RMK A01 T01111008  RH  044%=      5-min Rain = 0
KWVS 131940Z 20009G14KT 12/M01 A3029 RMK A01 T01151007  RH  044%=      5-min Rain = 0
KWVS 131945Z 19012G18KT 11/M01 A3029 RMK A01 T01131007  RH  044%=      5-min Rain = 0
KWVS 131950Z 18011G16KT 11/M01 A3028 RMK A01 T01111007  RH  044%=      5-min Rain = 0
KWVS 131955Z 17009G16KT 12/M01 A3028 RMK A01 T01181006  RH  043%=      5-min Rain = 0
KWVS 132000Z 17010G15KT 12/M01 A3028 RMK A01 T01231007  RH  041%=      5-min Rain = 0
KWVS 132005Z 17010G16KT 12/M01 A3028 RMK A01 T01221008  RH  041%=      5-min Rain = 0
KWVS 132010Z 20010KT 12/M01 A3027 RMK A01 T01221008  RH  041%=      5-min Rain = 0
KWVS 132015Z 19007G12KT 12/M01 A3027 RMK A01 T01241009  RH  040%=      5-min Rain = 0
KWVS 132020Z 18009KT 13/M01 A3027 RMK A01 T01301006  RH  039%=      5-min Rain = 0
KWVS 132025Z 18009KT 14/M01 A3027 RMK A01 T01351006  RH  038%=      5-min Rain = 0
KWVS 132030Z 19010KT 13/M01 A3027 RMK A01 T01301006  RH  040%=      5-min Rain = 0
KWVS 132035Z 17009G15KT 13/M00 A3026 RMK A01 T01341004  RH  039%=      5-min Rain = 0
KWVS 132040Z 18008KT 13/M00 A3026 RMK A01 T01331004  RH  039%=      5-min Rain = 0
KWVS 132045Z 18008KT 13/M00 A3026 RMK A01 T01331002  RH  040%=      5-min Rain = 0
KWVS 132050Z 18009KT 14/00 A3025 RMK A01 T013700-0  RH  039%=      5-min Rain = 0
KWVS 132055Z 18007KT 14/00 A3025 RMK A01 T01370000  RH  040%=      5-min Rain = 0
KWVS 132100Z 17008G13KT 14/00 A3024 RMK A01 T01390002  RH  039%=      5-min Rain = 0
KWVS 132105Z 17009G15KT 14/00 A3024 RMK A01 T01390003  RH  040%=      5-min Rain = 0
KWVS 132110Z 19008G13KT 14/00 A3024 RMK A01 T01410004  RH  040%=      5-min Rain = 0
KWVS 132115Z 18008G14KT 14/01 A3024 RMK A01 T01420006  RH  040%=      5-min Rain = 0
KWVS 132120Z 16011G16KT 15/01 A3024 RMK A01 T01450007  RH  040%=      5-min Rain = 0
KWVS 132125Z 18009KT 15/01 A3024 RMK A01 T01460007  RH  039%=      5-min Rain = 0
KWVS 132130Z 18008KT 15/01 A3024 RMK A01 T01450008  RH  040%=      5-min Rain = 0
KWVS 132135Z 18008G13KT 15/01 A3024 RMK A01 T01500011  RH  039%=      5-min Rain = 0
KWVS 132140Z 17008KT 16/01 A3024 RMK A01 T01550012  RH  038%=      5-min Rain = 0
KWVS 132145Z 17007KT 16/01 A3024 RMK A01 T01550013  RH  039%=      5-min Rain = 0
KWVS 132150Z 17007KT 15/02 A3024 RMK A01 T01540016  RH  040%=      5-min Rain = 0
KWVS 132155Z 18007G12KT 16/02 A3024 RMK A01 T01550017  RH  040%=      5-min Rain = 0
KWVS 132200Z 16008KT 16/02 A3024 RMK A01 T01550017  RH  040%=      5-min Rain = 0
KWVS 132205Z 18008KT 15/02 A3024 RMK A01 T01530018  RH  041%=      5-min Rain = 0
KWVS 132210Z 20007KT 15/02 A3024 RMK A01 T01530018  RH  040%=      5-min Rain = 0
KWVS 132215Z 19008KT 16/02 A3024 RMK A01 T01560019  RH  040%=      5-min Rain = 0
KWVS 132220Z 19008KT 16/02 A3023 RMK A01 T01600019  RH  039%=      5-min Rain = 0
KWVS 132225Z 20009KT 16/02 A3023 RMK A01 T01550019  RH  040%=      5-min Rain = 0
KWVS 132230Z 18009G14KT 16/02 A3023 RMK A01 T01580020  RH  040%=      5-min Rain = 0
KWVS 132235Z 17005KT 16/02 A3024 RMK A01 T01570021  RH  040%=      5-min Rain = 0
KWVS 132240Z 16008G15KT 16/02 A3024 RMK A01 T01600021  RH  040%=      5-min Rain = 0
KWVS 132245Z 20008KT 16/02 A3023 RMK A01 T01590023  RH  041%=      5-min Rain = 0
KWVS 132250Z 18006KT 16/02 A3023 RMK A01 T01560023  RH  041%=      5-min Rain = 0
KWVS 132255Z 16005KT 16/02 A3023 RMK A01 T01580023  RH  041%=      5-min Rain = 0
KWVS 132300Z 15005KT 16/02 A3023 RMK A01 T01600023  RH  040%=      5-min Rain = 0
KWVS 132305Z 16005KT 16/02 A3023 RMK A01 T01610023  RH  040%=      5-min Rain = 0
KWVS 132310Z 18005KT 16/03 A3023 RMK A01 T01580025  RH  041%=      5-min Rain = 0
KWVS 132315Z 18006KT 16/03 A3023 RMK A01 T01560025  RH  042%=      5-min Rain = 0
KWVS 132320Z 18004KT 16/03 A3023 RMK A01 T01550025  RH  042%=      5-min Rain = 0
KWVS 132325Z 19003KT 16/03 A3023 RMK A01 T01570026  RH  042%=      5-min Rain = 0
KWVS 132330Z 19003KT 16/03 A3023 RMK A01 T01560027  RH  042%=      5-min Rain = 0
KWVS 132335Z 18003KT 16/03 A3023 RMK A01 T01570027  RH  042%=      5-min Rain = 0
KWVS 132340Z 20003KT 16/03 A3023 RMK A01 T01580028  RH  042%=      5-min Rain = 0
KWVS 132345Z 18003KT 16/03 A3023 RMK A01 T01570029  RH  043%=      5-min Rain = 0
KWVS 132350Z 16003KT 16/03 A3023 RMK A01 T01560029  RH  043%=      5-min Rain = 0
KWVS 132355Z 15002KT 16/03 A3023 RMK A01 T01570029  RH  043%=      5-min Rain = 0
KWVS 140000Z 15002KT 16/03 A3023 RMK A01 T01580028  RH  043%=      5-min Rain = 0
KWVS 140005Z 17002KT 16/03 A3023 RMK A01 T01560028  RH  043%=      5-min Rain = 0
KWVS 140010Z 17002KT 15/03 A3024 RMK A01 T01530028  RH  044%=      5-min Rain = 0
KWVS 140015Z 16003KT 15/03 A3024 RMK A01 T01480028  RH  045%=      5-min Rain = 0
KWVS 140020Z 14003KT 14/03 A3024 RMK A01 T01420029  RH  048%=      5-min Rain = 0
KWVS 140025Z 13002KT 14/03 A3023 RMK A01 T01400030  RH  048%=      5-min Rain = 0
KWVS 140030Z 12003KT 14/03 A3023 RMK A01 T01380030  RH  049%=      5-min Rain = 0
KWVS 140035Z 10004KT 13/03 A3023 RMK A01 T01330029  RH  050%=      5-min Rain = 0
KWVS 140040Z 11003KT 13/03 A3023 RMK A01 T01340029  RH  050%=      5-min Rain = 0
KWVS 140045Z 12003KT 14/03 A3023 RMK A01 T01370030  RH  049%=      5-min Rain = 0
KWVS 140050Z 12004KT 14/03 A3023 RMK A01 T01360030  RH  049%=      5-min Rain = 0
KWVS 140055Z 13004KT 14/03 A3023 RMK A01 T01360030  RH  049%=      5-min Rain = 0
KWVS 140100Z 12004KT 13/03 A3023 RMK A01 T01330030  RH  051%=      5-min Rain = 0
KWVS 140105Z 11004KT 13/03 A3023 RMK A01 T01310030  RH  052%=      5-min Rain = 0
KWVS 140110Z 11004KT 13/03 A3024 RMK A01 T01310031  RH  051%=      5-min Rain = 0
KWVS 140115Z 11005KT 13/03 A3024 RMK A01 T01300031  RH  052%=      5-min Rain = 0
KWVS 140120Z 11006KT 13/03 A3024 RMK A01 T01280032  RH  053%=      5-min Rain = 0
KWVS 140125Z 12005KT 13/03 A3024 RMK A01 T01270033  RH  054%=      5-min Rain = 0
KWVS 140130Z 12005KT 13/04 A3023 RMK A01 T01290035  RH  054%=      5-min Rain = 0
KWVS 140135Z 12005KT 13/04 A3023 RMK A01 T01300035  RH  054%=      5-min Rain = 0
KWVS 140140Z 12005KT 13/04 A3023 RMK A01 T01280035  RH  054%=      5-min Rain = 0
KWVS 140145Z 12006KT 13/04 A3023 RMK A01 T01270035  RH  054%=      5-min Rain = 0
KWVS 140150Z 11006KT 13/04 A3023 RMK A01 T01260035  RH  055%=      5-min Rain = 0
KWVS 140155Z 11006KT 12/04 A3023 RMK A01 T01240035  RH  056%=      5-min Rain = 0
KWVS 140200Z 11006KT 12/04 A3023 RMK A01 T01230036  RH  056%=      5-min Rain = 0
KWVS 140205Z 11006KT 12/04 A3024 RMK A01 T01210036  RH  057%=      5-min Rain = 0
KWVS 140210Z 11007KT 12/04 A3024 RMK A01 T01180035  RH  058%=      5-min Rain = 0
KWVS 140215Z 11007KT 12/04 A3024 RMK A01 T01150035  RH  059%=      5-min Rain = 0
KWVS 140220Z 10008KT 11/03 A3024 RMK A01 T01110033  RH  060%=      5-min Rain = 0
KWVS 140225Z 10007KT 11/03 A3024 RMK A01 T01070032  RH  061%=      5-min Rain = 0
KWVS 140230Z 10007KT 11/03 A3025 RMK A01 T01060033  RH  062%=      5-min Rain = 0
KWVS 140235Z 10006KT 10/03 A3025 RMK A01 T01040032  RH  062%=      5-min Rain = 0
KWVS 140240Z 10006KT 10/03 A3025 RMK A01 T01020032  RH  063%=      5-min Rain = 0
KWVS 140245Z 09006KT 10/03 A3025 RMK A01 T01010031  RH  063%=      5-min Rain = 0
KWVS 140250Z 09007KT 10/03 A3024 RMK A01 T01000030  RH  063%=      5-min Rain = 0
KWVS 140255Z 09007KT 10/03 A3024 RMK A01 T00990029  RH  063%=      5-min Rain = 0
KWVS 140300Z 10006KT 10/03 A3025 RMK A01 T00970028  RH  063%=      5-min Rain = 0
KWVS 140305Z 10006KT 09/03 A3025 RMK A01 T00940027  RH  064%=      5-min Rain = 0
KWVS 140310Z 10006KT 09/03 A3025 RMK A01 T00920026  RH  064%=      5-min Rain = 0
KWVS 140315Z 10006KT 09/03 A3025 RMK A01 T00910026  RH  065%=      5-min Rain = 0
KWVS 140320Z 10006KT 09/03 A3025 RMK A01 T00900026  RH  065%=      5-min Rain = 0
KWVS 140325Z 09004KT 09/03 A3024 RMK A01 T00900026  RH  065%=      5-min Rain = 0
KWVS 140330Z 09004KT 09/03 A3024 RMK A01 T00910027  RH  065%=      5-min Rain = 0
KWVS 140335Z 08005KT 09/03 A3024 RMK A01 T00910026  RH  065%=      5-min Rain = 0
KWVS 140340Z 09003KT 09/03 A3024 RMK A01 T00910026  RH  065%=      5-min Rain = 0
KWVS 140345Z 07000KT 08/02 A3025 RMK A01 T00840022  RH  066%=      5-min Rain = 0
KWVS 140350Z 32002KT 08/02 A3025 RMK A01 T00750020  RH  069%=      5-min Rain = 0
KWVS 140355Z 32002KT 08/02 A3025 RMK A01 T00760023  RH  070%=      5-min Rain = 0
KWVS 140400Z 33001KT 08/03 A3025 RMK A01 T00830027  RH  069%=      5-min Rain = 0
KWVS 140405Z 31000KT 09/03 A3025 RMK A01 T00880028  RH  067%=      5-min Rain = 0
KWVS 140410Z 08001KT 09/03 A3024 RMK A01 T00920029  RH  066%=      5-min Rain = 0
KWVS 140415Z 08002KT 09/03 A3024 RMK A01 T00920028  RH  066%=      5-min Rain = 0
KWVS 140420Z 10003KT 09/03 A3024 RMK A01 T00920030  RH  066%=      5-min Rain = 0
KWVS 140425Z 09003KT 09/03 A3023 RMK A01 T00920029  RH  066%=      5-min Rain = 0
KWVS 140430Z 08003KT 09/03 A3024 RMK A01 T00930029  RH  066%=      5-min Rain = 0
KWVS 140435Z 10002KT 09/03 A3024 RMK A01 T00940029  RH  065%=      5-min Rain = 0
KWVS 140440Z 08002KT 09/03 A3024 RMK A01 T00900028  RH  066%=      5-min Rain = 0
KWVS 140445Z 08002KT 09/03 A3024 RMK A01 T00880029  RH  067%=      5-min Rain = 0
KWVS 140450Z 04002KT 09/03 A3024 RMK A01 T00870028  RH  067%=      5-min Rain = 0
KWVS 140455Z 01003KT 08/03 A3023 RMK A01 T00790025  RH  070%=      5-min Rain = 0
KWVS 140500Z 01003KT 08/03 A3023 RMK A01 T00790026  RH  070%=      5-min Rain = 0
KWVS 140505Z 00002KT 08/03 A3024 RMK A01 T00780026  RH  071%=      5-min Rain = 0
KWVS 140510Z 01002KT 08/03 A3023 RMK A01 T00800027  RH  071%=      5-min Rain = 0
KWVS 140515Z 02001KT 08/03 A3024 RMK A01 T00810027  RH  070%=      5-min Rain = 0
KWVS 140520Z 07001KT 08/03 A3023 RMK A01 T00830029  RH  070%=      5-min Rain = 0
KWVS 140525Z 04000KT 09/03 A3023 RMK A01 T00850029  RH  069%=      5-min Rain = 0
KWVS 140530Z 00002KT 08/03 A3023 RMK A01 T00810027  RH  070%=      5-min Rain = 0
KWVS 140535Z 00000KT 08/03 A3023 RMK A01 T00830028  RH  070%=      5-min Rain = 0
KWVS 140540Z 23001KT 09/03 A3023 RMK A01 T00850030  RH  070%=      5-min Rain = 0
KWVS 140545Z 23001KT 08/03 A3023 RMK A01 T00840028  RH  069%=      5-min Rain = 0
KWVS 140550Z 24002KT 08/03 A3023 RMK A01 T00810027  RH  070%=      5-min Rain = 0
KWVS 140555Z 26002KT 08/03 A3023 RMK A01 T00790027  RH  071%=      5-min Rain = 0

Page generated in 0.0126 seconds.